aviador You're here:

KRKP Decoded Metar

ROCKPORT in TX, USA
Report Time2018-02-25 11:09:00
UTC Time2018-02-25 11:26:36
Flight Rules lifr LIFR
Wind150° at 13 Gusting to 21 kt
W.Decomp.*RWY 14: 13.0 kt HW 0.9 kt RCW
RWY 18: 10.5 kt HW 7.6 kt LCW
W.Rank150° ranks 1
Current wind is above 150° avg. (9.5)
Visibility6437 m
Phenomena:Mist
Clouds:Overcast 004 Hf
Expected CloudBase > 400 ft AGL from Temp-Dew spread
Ceiling400 ft
Temp22°C (ISA +7)
Dew Point21°C (94% RH)
AAT21.5°C
QNH1012 hPa
Density Alt1,201 ft
Elevation20 ft
Report Wrong Elevation
Raw Report
KRKP 251109Z AUTO 15013G21KT 4SM BR OVC004 22/21 A2987 RMK AO2
T02170206=

Extra information for KRKP:More info

Metar Taf Metar & Taf Last 4 Metars F.Rules Stats Wind Profile Meteogram Temp Stats Airport Information Weather charts Add Link Nearby VenuesMetar ALERT Operation Metar Decoded Social comments

AIRNAV info for KRKP